Hlavní strana
METAR-TAF:

METAR-TAF

Letiště :

Bahrajn, Bahrajn

zeměpisná šířka: 26-16N, zeměpisná délka: 050-39E, výška: 2 m

Aktuální stav počasí

Zpráva byla vytvořena před 10 minutami, v 09:30 UTC
Jižní vítr 8 kt, proměnlivý mezi východojihovýchodním a jihojihozápadním
Teplota 22°C
Vlhkost vzduchu 33%
Tlak 1014 hPa
Viditelnost: 7000 m
Jasno

METAR: OBBI 240930Z 17008KT 120V200 7000 SKC 22/05 Q1014 NOSIG

Čas: 12:40 (09:40 UTC)

Předpověď počasí

Zpráva byla vytvořena před 4 hodinami a 40 minutami, v 05:00 UTC
Předpověď platná od 24 v 06 UTC do 25 v 12 UTC
Jihojihovýchodní vítr 8 kt
Viditelnost: 7000 m
Dočasný
od 24 v 06 UTC do 24 v 10 UTC
Viditelnost: 4000 m
zákal

TAF: OBBI 240500Z 2406/2512 16008KT 7000 NSC TEMPO 2406/2410 4000 HZ

Stav a předpovědi počasí z více než 4 000 letišť (zprávy METAR a TAF).

Červené a žluté tečky na mapě představují dostupné meteorologické stanice.

Když kurzor umístíte na tečku, zobrazí se název stanice.

Pak kliknutím zobrazíte stav a předpověď počasí.

Chcete-li změnit mapu, kliknutím na zelené tlačítko se znaménkem +mapu přiblížíte, kliknutím na zelené tlačítko se znaménkem – mapu oddálíte a kliknutím na zelené šipky přejdete na sousední mapy.


METAR-TAF: